Austin, Pennsylvania
Current Conditions -  °F | °C
As of 9:53 PM on Monday 20 Oct 2014 (Local Time) from KBFD Reporting Station
Overcast Overcast  
Wind Chill: 46°   Ceiling: 3600
Heat Index: 46°   Visibility: 10mi
Dew Point: 42°   Wind: 3mph
Humidity: 86%   Direction: 200°SSW
Pressure: 29.87"   Gusts: NA
Location:  41.63°N, 78.09°W
Report Text: KBFD 210153Z AUTO 20003KT 10SM BKN036 OVC043 08/06 A2987 RMK AO2 RAE40 SLP122 P0003 T00780056
Loading
Personal Weather Stations






























Interactive Weather Map
Tropical Storm Tracking
New forecast layout! Learn more

10-Day Weather Forecast

Advertisements
Track Severe Weather on mobile